Terminal Aerodrome Forecast
Issued by NWS Sterling, VA

Current Version | Previous Version | Graphics & Text | Print | Product List | Glossary On
Versions: 1 2 3 4 5 6 7 8 9 10 11 12 13 14 15 16 17 18 19 20 21 22 23 24 25 26 27 28 29 30 31
000
FTUS41 KLWX 010204 AAA
TAFIAD
TAF AMD
KIAD 010204Z 0102/0206 18008KT P6SM VCTS BKN060CB
      TEMPO 0102/0103 VRB25G35KT
     FM010400 18006KT P6SM BKN060
     FM011600 22006KT P6SM SHRA BKN060
     FM020100 35005KT P6SM SHRA BKN040=

USA.gov is the U.S. government's official web portal to all federal, state and local government web resources and services.